Time;durP1;ratioP1;P1;durP2;ratioP2;P2;SDS_P1;SDS_P2;PMS_P1;PMS_P2;Temp;Humidity;BMP_temperature;BMP_pressure;BME280_temperature;BME280_humidity;BME280_pressure;Samples;Min_cycle;Max_cycle;Signal;HPM_P1;HPM_P2
2023/07/05 00:04:52;;;;;;;19.83;12.82;;;;;;;-145.68;71.53;73675.69;10582599;28;20182;-75
2023/07/05 00:09:52;;;;;;;22.13;11.80;;;;;;;-145.68;71.57;73671.69;10582290;28;20190;-76
2023/07/05 00:14:52;;;;;;;20.07;12.23;;;;;;;-145.68;71.25;73665.69;10582196;28;20217;-77
2023/07/05 00:19:53;;;;;;;21.20;12.57;;;;;;;-145.68;72.13;73675.69;10582086;28;20657;-77
2023/07/05 00:24:53;;;;;;;25.63;12.27;;;;;;;-145.68;72.07;73663.69;10581850;28;20206;-77
2023/07/05 00:29:54;;;;;;;22.20;12.15;;;;;;;-145.68;72.13;73655.69;10581666;28;20197;-78
2023/07/05 00:34:54;;;;;;;20.58;10.80;;;;;;;-145.68;72.15;73649.72;10562834;28;20716;-74
2023/07/05 00:39:55;;;;;;;19.83;11.33;;;;;;;-145.68;71.76;73649.72;10562669;28;20659;-75
2023/07/05 00:45:10;;;;;;;19.97;11.80;;;;;;;-145.68;71.75;73645.72;10580669;28;20550;-75
2023/07/05 00:50:23;;;;;;;18.97;10.73;;;;;;;-145.68;71.74;73637.72;10580562;28;20595;-77
2023/07/05 00:55:24;;;;;;;17.67;11.00;;;;;;;-145.68;71.95;73629.72;10545184;28;20855;-77
2023/07/05 01:00:26;;;;;;;16.13;10.27;;;;;;;-145.68;71.57;73629.72;10544758;28;20549;-77
2023/07/05 01:05:28;;;;;;;18.67;10.90;;;;;;;-145.68;70.79;73615.72;10545039;28;20634;-77
2023/07/05 01:10:28;;;;;;;21.67;11.27;;;;;;;-145.68;70.51;73609.72;10561427;28;20182;-78
2023/07/05 01:15:36;;;;;;;17.43;9.87;;;;;;;-145.68;69.86;73591.75;10544831;28;20259;-76
2023/07/05 01:20:55;;;;;;;18.43;10.93;;;;;;;-145.68;69.62;73597.75;10579229;28;20559;-77
2023/07/05 01:26:17;;;;;;;16.93;10.97;;;;;;;-145.68;69.93;73599.72;10561190;28;20196;-77
2023/07/05 01:31:40;;;;;;;19.53;12.27;;;;;;;-145.68;70.44;73597.75;10560908;28;20232;-77
2023/07/05 01:36:41;;;;;;;17.07;10.57;;;;;;;-145.68;70.74;73593.75;10559500;28;20229;-77
2023/07/05 01:41:41;;;;;;;17.63;12.03;;;;;;;-145.68;71.00;73597.75;10577621;28;20205;-77
2023/07/05 01:47:03;;;;;;;16.97;11.47;;;;;;;-145.68;71.71;73607.72;10577602;28;20542;-77
2023/07/05 01:52:19;;;;;;;17.13;10.43;;;;;;;-145.68;72.77;73619.72;10577574;28;20181;-77
2023/07/05 01:57:27;;;;;;;16.90;10.97;;;;;;;-145.68;73.65;73625.72;10577890;28;20247;-77
2023/07/05 02:02:31;;;;;;;23.20;11.40;;;;;;;-145.68;74.19;73617.72;10541963;28;20201;-77
2023/07/05 02:07:32;;;;;;;25.73;12.27;;;;;;;-145.68;73.54;73599.72;10542670;28;20185;-77
2023/07/05 02:12:32;;;;;;;21.83;12.47;;;;;;;-145.68;72.99;73579.75;10542285;27;20235;-77
2023/07/05 02:17:33;;;;;;;18.98;11.63;;;;;;;-145.68;72.84;73583.75;10559093;28;20571;-77
2023/07/05 02:22:33;;;;;;;19.07;11.83;;;;;;;-145.68;74.24;73581.75;10558885;28;20178;-77
2023/07/05 02:27:35;;;;;;;20.13;13.13;;;;;;;-145.68;71.68;73535.78;10577306;28;20261;-77
2023/07/05 02:32:35;;;;;;;18.15;11.35;;;;;;;-145.68;69.39;73503.78;10576293;28;20233;-77
2023/07/05 02:37:36;;;;;;;22.23;12.43;;;;;;;-145.68;71.42;73537.78;10576794;28;20214;-77
2023/07/05 02:42:36;;;;;;;16.40;12.20;;;;;;;-145.68;72.99;73559.75;10576265;28;20182;-77
2023/07/05 02:47:36;;;;;;;25.52;13.57;;;;;;;-145.68;72.87;73533.78;10541384;28;20231;-77
2023/07/05 02:52:37;;;;;;;22.88;12.15;;;;;;;-145.68;71.13;73501.78;10557791;28;20221;-77
2023/07/05 02:57:37;;;;;;;20.40;12.45;;;;;;;-145.68;70.13;73469.81;10576356;28;20186;-75
2023/07/05 03:02:38;;;;;;;19.95;13.27;;;;;;;-145.68;69.75;73449.81;10568120;28;20194;-75
2023/07/05 03:07:38;;;;;;;19.55;13.02;;;;;;;-145.68;68.50;73429.84;10531271;28;20190;-75
2023/07/05 03:12:39;;;;;;;22.17;13.93;;;;;;;-145.68;67.61;73395.84;10496308;28;20670;-75
2023/07/05 03:17:39;;;;;;;23.60;13.73;;;;;;;-145.68;67.41;73387.88;10538661;28;20183;-75
2023/07/05 03:22:40;;;;;;;19.05;13.40;;;;;;;-145.68;66.97;73371.88;10519642;28;20668;-75
2023/07/05 03:27:40;;;;;;;22.00;14.75;;;;;;;-145.68;67.59;73373.88;10538124;28;20662;-75
2023/07/05 03:32:43;;;;;;;23.92;14.18;;;;;;;-145.68;67.14;73357.88;10519077;28;20273;-77
2023/07/05 03:37:43;;;;;;;22.00;14.32;;;;;;;-145.68;67.18;73347.88;10519557;28;20221;-76
2023/07/05 03:42:44;;;;;;;24.63;15.25;;;;;;;-145.68;66.08;73305.91;10519447;28;20197;-77
2023/07/05 03:47:44;;;;;;;21.52;14.25;;;;;;;-145.68;63.04;73217.97;10537095;28;20191;-75
2023/07/05 03:52:44;;;;;;;23.20;14.20;;;;;;;-145.68;58.79;73102.06;10537012;28;20233;-75
2023/07/05 03:57:45;;;;;;;22.83;14.68;;;;;;;-145.68;56.87;73042.09;10536966;28;20285;-75
2023/07/05 04:02:45;;;;;;;20.23;13.90;;;;;;;-145.68;54.19;72968.16;10538680;28;20183;-75
2023/07/05 04:07:46;;;;;;;26.17;13.73;;;;;;;-145.68;52.51;72890.22;10540465;28;20191;-75
2023/07/05 04:12:46;;;;;;;22.63;14.13;;;;;;;-145.68;51.20;72838.25;10539717;28;20230;-75
2023/07/05 04:17:47;;;;;;;20.85;12.57;;;;;;;-145.68;48.07;72704.34;10540410;28;20213;-75
2023/07/05 04:22:47;;;;;;;18.98;11.95;;;;;;;-145.68;46.40;72620.41;10539083;28;20281;-75
2023/07/05 04:27:47;;;;;;;21.02;12.45;;;;;;;-145.68;45.20;72574.47;10538430;28;20198;-75
2023/07/05 04:32:48;;;;;;;17.50;12.70;;;;;;;-145.68;44.89;72554.47;10539013;28;20329;-75
2023/07/05 04:37:48;;;;;;;17.35;11.75;;;;;;;-145.68;44.46;72540.50;10539145;28;20221;-76
2023/07/05 04:42:48;;;;;;;20.30;13.07;;;;;;;-145.68;44.10;72516.50;10538104;28;20201;-75
2023/07/05 04:47:49;;;;;;;21.45;12.73;;;;;;;-145.68;43.77;72500.53;10538643;28;20201;-75
2023/07/05 04:52:49;;;;;;;25.52;10.68;;;;;;;-145.68;43.89;72490.53;10538049;28;20215;-75
2023/07/05 04:57:49;;;;;;;26.25;13.80;;;;;;;-145.68;44.33;72518.50;10538476;28;20194;-76
2023/07/05 05:02:50;;;;;;;19.65;12.43;;;;;;;-145.68;44.76;72522.50;10538401;28;20183;-75
2023/07/05 05:07:51;;;;;;;22.35;12.98;;;;;;;-145.68;45.18;72538.50;10538002;28;20186;-75
2023/07/05 05:12:51;;;;;;;21.00;12.30;;;;;;;-145.68;44.85;72510.50;10519725;28;20215;-75
2023/07/05 05:17:51;;;;;;;19.75;12.13;;;;;;;-145.68;44.79;72496.53;10537524;28;20201;-75
2023/07/05 05:22:52;;;;;;;21.33;13.98;;;;;;;-145.68;44.78;72498.53;10566461;28;20186;-75
2023/07/05 05:27:52;;;;;;;20.10;12.77;;;;;;;-145.68;45.09;72488.53;10578234;28;20231;-75
2023/07/05 05:32:53;;;;;;;17.92;11.98;;;;;;;-145.68;45.23;72490.53;10578473;28;20237;-76
2023/07/05 05:37:53;;;;;;;19.88;13.27;;;;;;;-145.68;45.30;72492.53;10576778;28;20938;-75
2023/07/05 05:42:53;;;;;;;17.98;12.50;;;;;;;-145.68;45.80;72472.53;10577905;28;20660;-76
2023/07/05 05:47:54;;;;;;;17.35;10.55;;;;;;;-145.68;45.88;72468.56;10578791;28;20189;-75
2023/07/05 05:52:54;;;;;;;15.60;10.45;;;;;;;-145.68;46.09;72476.53;10578069;28;20213;-76
2023/07/05 05:57:55;;;;;;;15.20;11.23;;;;;;;-145.68;46.24;72460.56;10578266;28;20598;-76
2023/07/05 06:02:57;;;;;;;16.67;9.80;;;;;;;-145.68;46.58;72436.56;10577811;28;20639;-76
2023/07/05 06:07:57;;;;;;;14.32;9.90;;;;;;;-145.68;46.75;72418.59;10577965;28;20192;-74
2023/07/05 06:12:57;;;;;;;15.27;9.65;;;;;;;-145.68;46.99;72392.63;10558997;28;20217;-76
2023/07/05 06:17:58;;;;;;;15.15;8.50;;;;;;;-145.68;47.17;72352.66;10577373;28;20194;-76
2023/07/05 06:23:00;;;;;;;16.10;9.30;;;;;;;-145.68;46.59;72298.69;10577031;28;20197;-75
2023/07/05 06:28:00;;;;;;;13.93;7.43;;;;;;;-145.68;46.40;72248.75;10577157;28;20204;-75
2023/07/05 06:33:00;;;;;;;15.60;7.38;;;;;;;-145.68;47.26;72244.75;10576507;28;20257;-76
2023/07/05 06:38:01;;;;;;;12.32;6.20;;;;;;;-145.68;47.63;72200.78;10575861;28;20209;-76
2023/07/05 06:43:04;;;;;;;7.72;5.10;;;;;;;-145.68;47.07;72260.72;10556887;28;20193;-76
2023/07/05 06:48:05;;;;;;;10.23;4.95;;;;;;;-145.68;47.92;72270.72;10571169;28;20197;-76
2023/07/05 06:53:05;;;;;;;7.03;3.83;;;;;;;-145.68;46.99;72298.69;10572922;28;20214;-75
2023/07/05 06:58:06;;;;;;;7.75;5.28;;;;;;;-145.68;46.53;72280.72;10575012;28;20418;-75
2023/07/05 07:03:06;;;;;;;10.07;5.75;;;;;;;-145.68;45.67;72180.81;10573877;28;20228;-76
2023/07/05 07:08:06;;;;;;;11.52;6.55;;;;;;;-145.68;46.73;72222.78;10556153;28;20190;-77
2023/07/05 07:13:07;;;;;;;14.02;7.10;;;;;;;-145.68;47.09;72300.69;10574597;28;20348;-75
2023/07/05 07:18:08;;;;;;;10.95;6.63;;;;;;;-145.68;47.05;72272.72;10555956;28;20566;-76
2023/07/05 07:23:08;;;;;;;8.18;5.55;;;;;;;-145.68;46.27;72200.78;10572524;28;20181;-75
2023/07/05 07:28:09;;;;;;;8.52;5.45;;;;;;;-145.68;44.25;72090.91;10555836;28;20192;-75
2023/07/05 07:33:09;;;;;;;14.20;6.70;;;;;;;-145.68;43.69;72080.91;10573735;28;20740;-76
2023/07/05 07:38:09;;;;;;;12.02;7.07;;;;;;;-145.68;43.70;72096.88;10572819;28;20727;-76
2023/07/05 07:43:10;;;;;;;10.70;6.40;;;;;;;-145.68;43.69;72030.94;10572506;28;20633;-76
2023/07/05 07:48:10;;;;;;;12.10;6.70;;;;;;;-145.68;44.02;72138.84;10572424;28;20897;-75
2023/07/05 07:53:10;;;;;;;13.95;6.60;;;;;;;-145.68;43.37;72008.97;10572073;28;20701;-75
2023/07/05 07:58:11;;;;;;;9.45;6.72;;;;;;;-145.68;42.80;72012.97;10573427;28;20782;-75
2023/07/05 08:03:11;;;;;;;10.15;6.15;;;;;;;-145.68;42.96;72012.97;10580819;28;20653;-75
2023/07/05 08:08:12;;;;;;;7.53;5.97;;;;;;;-145.68;43.35;72034.94;10580872;28;20683;-76
2023/07/05 08:13:12;;;;;;;10.40;6.30;;;;;;;-145.68;43.13;71973.00;10580725;28;20921;-75
2023/07/05 08:18:12;;;;;;;9.73;5.65;;;;;;;-145.68;42.23;71925.06;10580316;28;20560;-77
2023/07/05 08:23:13;;;;;;;10.95;5.57;;;;;;;-145.68;41.53;71833.16;10557285;28;20601;-75
2023/07/05 08:28:13;;;;;;;8.02;4.88;;;;;;;-145.68;41.67;71897.09;10548298;28;20202;-76
2023/07/05 08:33:15;;;;;;;7.82;5.97;;;;;;;-145.68;42.09;71855.13;10519356;28;20341;-77
2023/07/05 08:38:19;;;;;;;8.90;6.28;;;;;;;-145.68;39.98;71773.22;10521370;28;20256;-76
2023/07/05 08:43:35;;;;;;;7.10;5.78;;;;;;;-145.68;39.91;71729.25;10579432;28;20729;-76
2023/07/05 08:48:36;;;;;;;9.27;5.43;;;;;;;-145.68;41.45;71885.09;10560869;28;20714;-77
2023/07/05 08:53:47;;;;;;;9.45;5.28;;;;;;;-145.68;41.43;71823.16;10559863;28;20279;-79
2023/07/05 08:58:56;;;;;;;11.00;5.72;;;;;;;-145.68;41.08;71953.03;10561165;28;20194;-78
2023/07/05 09:03:56;;;;;;;12.45;6.18;;;;;;;-145.68;42.35;72022.97;10560819;28;20186;-80
2023/07/05 09:09:15;;;;;;;7.25;6.03;;;;;;;-145.68;43.30;72078.91;10578526;28;20650;-79
2023/07/05 09:14:40;;;;;;;9.05;5.45;;;;;;;-145.68;43.97;72056.94;10576906;28;20689;-78
2023/07/05 09:19:51;;;;;;;21.13;7.05;;;;;;;-145.68;43.41;72094.88;10559153;28;20449;-79
2023/07/05 09:24:53;;;;;;;10.45;8.30;;;;;;;-145.68;43.56;72122.88;10559931;28;20190;-81
2023/07/05 09:30:04;;;;;;;39.65;9.90;;;;;;;-145.68;44.80;72166.81;10559076;28;20295;-80
2023/07/05 09:35:15;;;;;;;17.45;8.30;;;;;;;-145.68;45.53;72118.88;10542268;28;20321;-79
2023/07/05 09:40:18;;;;;;;8.77;5.50;;;;;;;-145.68;44.92;72102.88;10576951;28;20695;-80
2023/07/05 09:45:19;;;;;;;8.30;4.95;;;;;;;-145.68;45.92;72182.81;10576548;28;20529;-78
2023/07/05 09:50:21;;;;;;;14.43;4.93;;;;;;;-145.68;45.73;72142.84;10576915;28;20186;-78
2023/07/05 09:55:25;;;;;;;7.63;4.90;;;;;;;-145.68;45.54;72176.81;10576528;28;20218;-78
2023/07/05 10:00:31;;;;;;;6.88;5.07;;;;;;;-145.68;45.34;72162.81;10526045;28;20717;-78
2023/07/05 10:05:32;;;;;;;11.40;5.18;;;;;;;-145.68;45.53;72196.78;10516162;28;20273;-79
2023/07/05 10:10:37;;;;;;;8.70;5.85;;;;;;;-145.68;45.79;72168.81;10533796;28;20194;-79
2023/07/05 10:15:47;;;;;;;9.77;6.88;;;;;;;-145.68;46.02;72124.88;10545240;28;20217;-78
2023/07/05 10:20:49;;;;;;;9.85;5.88;;;;;;;-145.68;45.93;72124.88;10574787;28;20213;-78
2023/07/05 10:25:51;;;;;;;9.95;6.53;;;;;;;-145.68;46.29;72164.81;10555896;28;20186;-79
2023/07/05 10:30:55;;;;;;;7.82;5.72;;;;;;;-145.68;46.80;72188.81;10556864;28;20269;-78
2023/07/05 10:36:04;;;;;;;9.38;5.78;;;;;;;-145.68;47.31;72194.78;10573801;28;20271;-78
2023/07/05 10:41:20;;;;;;;10.60;7.07;;;;;;;-145.68;48.56;72226.75;10555843;28;20563;-79
2023/07/05 10:46:25;;;;;;;5.57;4.05;;;;;;;-145.68;48.85;72234.75;10554694;28;20226;-78
2023/07/05 10:51:29;;;;;;;7.47;4.00;;;;;;;-145.68;49.66;72274.72;10556120;28;20212;-78
2023/07/05 10:56:32;;;;;;;10.07;3.72;;;;;;;-145.68;49.40;72278.72;10575032;28;20221;-78
2023/07/05 11:01:38;;;;;;;7.90;4.05;;;;;;;-145.68;49.90;72206.78;10573929;28;20277;-78
2023/07/05 11:06:40;;;;;;;4.90;3.40;;;;;;;-145.68;48.85;72164.81;10556346;28;20190;-78
2023/07/05 11:11:55;;;;;;;3.78;2.85;;;;;;;-145.68;45.55;71973.00;10556397;28;20217;-78
2023/07/05 11:16:56;;;;;;;4.70;1.80;;;;;;;-145.68;43.50;71945.03;10553177;28;20214;-77
2023/07/05 11:21:58;;;;;;;4.65;2.05;;;;;;;-145.68;42.34;71931.06;10542844;28;20198;-78
2023/07/05 11:27:00;;;;;;;4.55;2.47;;;;;;;-145.68;42.68;71885.09;10573683;28;20186;-78
2023/07/05 11:32:03;;;;;;;2.67;2.00;;;;;;;-145.68;43.08;71929.06;10550795;28;20725;-78
2023/07/05 11:37:06;;;;;;;3.70;1.90;;;;;;;-145.68;41.79;71937.03;10580754;28;20673;-78
2023/07/05 11:42:30;;;;;;;4.82;2.25;;;;;;;-145.68;41.84;71941.03;10559340;28;20604;-78
2023/07/05 11:47:33;;;;;;;3.25;2.00;;;;;;;-145.68;41.92;71977.00;10527460;28;20672;-78
2023/07/05 11:52:35;;;;;;;3.35;2.47;;;;;;;-145.68;42.64;72054.94;10580655;28;20197;-79
2023/07/05 11:57:40;;;;;;;3.63;2.22;;;;;;;-145.68;42.38;72030.94;10562961;28;20197;-79
2023/07/05 12:02:59;;;;;;;5.63;2.60;;;;;;;-145.68;43.07;72048.94;10562843;28;20183;-79
2023/07/05 12:08:16;;;;;;;6.43;2.55;;;;;;;-145.68;43.00;72130.84;10562928;28;20193;-78
2023/07/05 12:13:23;;;;;;;6.75;2.60;;;;;;;-145.68;44.23;72110.88;10562160;28;20217;-79
2023/07/05 12:18:24;;;;;;;4.55;2.75;;;;;;;-145.68;42.65;72092.91;10580674;28;20224;-78
2023/07/05 12:23:29;;;;;;;5.63;2.38;;;;;;;-145.68;43.16;71998.97;10559284;28;20190;-78
2023/07/05 12:28:30;;;;;;;4.97;2.60;;;;;;;-145.68;43.29;72136.84;10559044;28;20198;-79
2023/07/05 12:33:35;;;;;;;6.10;2.50;;;;;;;-145.68;43.50;72114.88;10558757;28;20226;-78
2023/07/05 12:38:38;;;;;;;3.78;2.38;;;;;;;-145.68;43.86;72222.78;10560714;28;20247;-78
2023/07/05 12:43:39;;;;;;;4.90;2.63;;;;;;;-145.68;44.33;72226.75;10560133;28;20178;-79
2023/07/05 12:48:39;;;;;;;5.60;2.10;;;;;;;-145.68;46.00;72194.78;10579830;28;20190;-79
2023/07/05 12:53:40;;;;;;;3.75;2.28;;;;;;;-145.68;46.29;72260.72;10560288;28;20217;-79
2023/07/05 12:58:49;;;;;;;5.80;2.50;;;;;;;-145.68;47.24;72268.72;10543388;28;20221;-79
2023/07/05 13:03:50;;;;;;;3.42;1.98;;;;;;;-145.68;46.99;72328.69;10543602;28;20656;-79
2023/07/05 13:08:51;;;;;;;2.85;1.70;;;;;;;-145.68;48.22;72390.63;10546477;28;20197;-80
2023/07/05 13:13:58;;;;;;;2.83;1.73;;;;;;;-145.68;49.58;72444.56;10537039;28;20222;-78
2023/07/05 13:19:06;;;;;;;3.33;1.65;;;;;;;-145.68;50.48;72434.59;10556947;28;20195;-77
2023/07/05 13:24:28;;;;;;;9.45;2.00;;;;;;;-145.68;51.09;72428.59;10559361;28;20703;-77
2023/07/05 13:29:31;;;;;;;1.83;1.65;;;;;;;-145.68;51.65;72458.56;10576709;28;20274;-77
2023/07/05 13:34:31;;;;;;;2.08;1.60;;;;;;;-145.68;50.96;72456.56;10572328;27;20233;-73
2023/07/05 13:39:32;;;;;;;2.22;1.58;;;;;;;-145.68;49.43;72500.53;10585097;27;20210;-73
2023/07/05 13:44:32;;;;;;;1.35;1.20;;;;;;;-145.68;48.51;72488.53;10576127;28;20646;-73
2023/07/05 13:49:33;;;;;;;2.35;1.50;;;;;;;-145.68;48.39;72476.53;10574937;28;20268;-73
2023/07/05 13:54:33;;;;;;;1.35;1.25;;;;;;;-145.68;46.33;72314.69;10586389;27;20300;-73
2023/07/05 13:59:33;;;;;;;1.70;1.50;;;;;;;-145.68;44.17;72138.84;10551436;27;20210;-76
2023/07/05 14:04:34;;;;;;;1.83;1.60;;;;;;;-145.68;42.83;72172.81;10551030;28;20534;-76
2023/07/05 14:09:34;;;;;;;3.50;1.67;;;;;;;-145.68;42.15;72114.88;10575235;28;20190;-77
2023/07/05 14:14:37;;;;;;;3.75;1.30;;;;;;;-145.68;40.57;72048.94;10576149;28;20221;-77
2023/07/05 14:19:37;;;;;;;1.70;1.60;;;;;;;-145.68;41.54;72110.88;10575613;28;20190;-77
2023/07/05 14:24:38;;;;;;;4.00;1.80;;;;;;;-145.68;41.30;72068.91;10530843;28;20248;-76
2023/07/05 14:29:38;;;;;;;2.85;1.80;;;;;;;-145.68;39.36;71903.06;10533336;28;20277;-77
2023/07/05 14:34:39;;;;;;;2.10;1.90;;;;;;;-145.68;39.39;71973.00;10564403;28;20271;-76
2023/07/05 14:39:39;;;;;;;2.00;1.83;;;;;;;-145.68;39.55;71953.03;10566045;28;20483;-76
2023/07/05 14:44:39;;;;;;;2.83;1.95;;;;;;;-145.68;39.62;71953.03;10575168;28;20692;-76
2023/07/05 14:49:40;;;;;;;3.80;2.00;;;;;;;-145.68;39.27;71841.13;10573419;28;20216;-76
2023/07/05 14:54:40;;;;;;;2.47;1.70;;;;;;;-145.68;40.49;71981.00;10556507;28;20222;-76
2023/07/05 14:59:41;;;;;;;2.05;1.80;;;;;;;-145.68;39.85;71863.13;10544920;28;20190;-76
2023/07/05 15:04:41;;;;;;;3.67;2.45;;;;;;;-145.68;40.40;72120.88;10528790;28;20186;-76
2023/07/05 15:09:41;;;;;;;3.35;2.47;;;;;;;-145.68;38.73;71901.09;10553280;28;20199;-75
2023/07/05 15:14:42;;;;;;;4.45;2.15;;;;;;;-145.68;36.79;71669.31;10541137;28;20312;-76
2023/07/05 15:19:42;;;;;;;5.38;2.25;;;;;;;-145.68;37.30;71797.19;10521626;28;20199;-76
2023/07/05 15:24:42;;;;;;;3.33;2.60;;;;;;;-145.68;38.17;71911.06;10539951;28;20324;-77
2023/07/05 15:29:43;;;;;;;3.22;2.53;;;;;;;-145.68;37.44;71895.09;10554973;28;20200;-75
2023/07/05 15:34:43;;;;;;;5.18;2.42;;;;;;;-145.68;36.37;71717.28;10581152;28;20263;-75
2023/07/05 15:39:44;;;;;;;3.97;2.67;;;;;;;-145.68;32.86;71377.63;10565924;28;20210;-76
2023/07/05 15:44:47;;;;;;;3.57;2.90;;;;;;;-145.68;34.43;71613.38;10539879;28;20458;-76
2023/07/05 15:49:48;;;;;;;4.13;2.80;;;;;;;-145.68;34.11;71473.53;10527427;28;20842;-77
2023/07/05 15:54:49;;;;;;;3.97;2.67;;;;;;;-145.68;36.26;71833.16;10538814;28;20214;-77
2023/07/05 15:59:57;;;;;;;4.45;2.38;;;;;;;-145.68;34.98;71701.28;10540357;28;20203;-77
2023/07/05 16:04:57;;;;;;;3.75;2.47;;;;;;;-145.68;35.81;71925.06;10545333;28;20193;-76
2023/07/05 16:09:58;;;;;;;3.70;3.08;;;;;;;-145.68;35.55;72028.94;10580420;28;20204;-76
2023/07/05 16:14:58;;;;;;;4.07;2.97;;;;;;;-145.68;34.44;72016.97;10580972;28;20271;-75
2023/07/05 16:19:59;;;;;;;4.43;2.83;;;;;;;-145.68;34.99;72118.88;10579368;28;20649;-77
2023/07/05 16:24:59;;;;;;;5.45;3.33;;;;;;;-145.68;34.35;72028.94;10560789;28;20649;-77
2023/07/05 16:29:59;;;;;;;3.17;2.78;;;;;;;-145.68;33.57;71937.03;10542235;28;20194;-77
2023/07/05 16:35:00;;;;;;;4.72;3.17;;;;;;;-145.68;34.43;72036.94;10538358;28;20238;-76
2023/07/05 16:40:01;;;;;;;9.45;3.42;;;;;;;-145.68;34.22;72008.97;10538569;28;20207;-77
2023/07/05 16:45:01;;;;;;;3.78;3.20;;;;;;;-145.68;34.82;72104.88;10539300;28;20183;-76
2023/07/05 16:50:01;;;;;;;4.95;3.58;;;;;;;-145.68;36.41;72260.72;10538084;28;20263;-77
2023/07/05 16:55:02;;;;;;;5.57;3.47;;;;;;;-145.68;36.39;72270.72;10520368;28;20215;-77
2023/07/05 17:00:02;;;;;;;6.43;3.08;;;;;;;-145.68;36.73;72290.72;10538284;28;20191;-76
2023/07/05 17:05:03;;;;;;;8.02;3.88;;;;;;;-145.68;37.14;72350.66;10538150;28;20183;-75
2023/07/05 17:10:04;;;;;;;8.15;4.40;;;;;;;-145.68;37.94;72366.63;10519440;28;20190;-76
2023/07/05 17:15:05;;;;;;;5.05;3.40;;;;;;;-145.68;38.47;72408.59;10547196;28;20590;-76
2023/07/05 17:20:06;;;;;;;8.00;4.22;;;;;;;-145.68;38.77;72462.56;10578357;28;20581;-76
2023/07/05 17:25:09;;;;;;;5.03;4.00;;;;;;;-145.68;38.93;72496.53;10578479;28;20668;-75
2023/07/05 17:30:10;;;;;;;7.28;3.88;;;;;;;-145.68;39.33;72460.56;10560244;28;20249;-76
2023/07/05 17:35:10;;;;;;;5.53;4.40;;;;;;;-145.68;39.05;72420.59;10578592;28;20233;-75
2023/07/05 17:40:11;;;;;;;8.95;5.43;;;;;;;-145.68;38.28;72452.56;10578565;28;20206;-75
2023/07/05 17:45:12;;;;;;;15.55;10.52;;;;;;;-145.68;38.16;72422.59;10578830;28;20221;-75
2023/07/05 17:50:12;;;;;;;7.30;4.82;;;;;;;-145.68;37.89;72444.56;10578493;28;20816;-75
2023/07/05 17:55:13;;;;;;;6.57;4.70;;;;;;;-145.68;38.15;72502.53;10578404;28;20225;-75
2023/07/05 18:00:14;;;;;;;7.97;4.32;;;;;;;-145.68;37.94;72536.50;10577930;28;20182;-75
2023/07/05 18:05:15;;;;;;;7.90;4.13;;;;;;;-145.68;38.24;72592.44;10577850;28;20186;-75
2023/07/05 18:10:15;;;;;;;6.10;4.57;;;;;;;-145.68;38.63;72576.47;10559554;28;20270;-75
2023/07/05 18:15:16;;;;;;;6.60;4.68;;;;;;;-145.68;39.01;72608.44;10577267;28;20252;-75
2023/07/05 18:20:17;;;;;;;6.47;4.28;;;;;;;-145.68;39.18;72638.41;10558561;28;20228;-75
2023/07/05 18:25:17;;;;;;;5.28;3.88;;;;;;;-145.68;39.16;72632.41;10576969;28;20272;-75
2023/07/05 18:30:17;;;;;;;7.80;4.38;;;;;;;-145.68;39.53;72654.41;10575215;28;20189;-75
2023/07/05 18:35:18;;;;;;;5.63;3.75;;;;;;;-145.68;39.47;72632.41;10575066;28;20233;-75
2023/07/05 18:40:19;;;;;;;5.57;3.72;;;;;;;-145.68;39.83;72630.41;10574896;28;20703;-75
2023/07/05 18:45:20;;;;;;;6.53;3.70;;;;;;;-145.68;38.97;72626.41;10574639;28;20190;-75
2023/07/05 18:50:20;;;;;;;5.15;3.10;;;;;;;-145.68;38.72;72620.41;10574539;28;20186;-75
2023/07/05 18:55:20;;;;;;;6.18;3.95;;;;;;;-145.68;39.31;72642.41;10574037;28;20756;-75
2023/07/05 19:00:21;;;;;;;5.40;3.55;;;;;;;-145.68;39.19;72634.41;10573746;28;20670;-76
2023/07/05 19:05:22;;;;;;;8.73;4.38;;;;;;;-145.68;40.12;72668.38;10574365;28;20178;-75
2023/07/05 19:10:23;;;;;;;5.60;3.30;;;;;;;-145.68;39.59;72690.38;10574856;28;20181;-76
2023/07/05 19:15:24;;;;;;;9.18;3.20;;;;;;;-145.68;39.83;72728.34;10574801;28;20217;-76
2023/07/05 19:20:24;;;;;;;5.25;3.28;;;;;;;-145.68;40.05;72766.31;10556272;28;20201;-76
2023/07/05 19:25:25;;;;;;;5.53;3.50;;;;;;;-145.68;41.64;72824.25;10574900;28;20280;-75
2023/07/05 19:30:28;;;;;;;6.78;3.70;;;;;;;-145.68;42.21;72892.22;10574401;28;20190;-76
2023/07/05 19:35:29;;;;;;;6.65;3.55;;;;;;;-145.68;42.48;72912.19;10574726;28;20248;-75
2023/07/05 19:40:30;;;;;;;7.25;3.22;;;;;;;-145.68;42.93;72948.16;10573677;28;20618;-75
2023/07/05 19:45:30;;;;;;;7.47;3.42;;;;;;;-145.68;43.74;73004.13;10573949;28;20202;-76
2023/07/05 19:50:33;;;;;;;6.13;3.40;;;;;;;-145.68;44.90;73080.06;10572947;28;20197;-76
2023/07/05 19:55:34;;;;;;;6.03;3.60;;;;;;;-145.68;46.59;73152.03;10573704;28;20214;-75
2023/07/05 20:00:35;;;;;;;9.02;4.20;;;;;;;-145.68;47.73;73196.00;10582153;28;20186;-75
2023/07/05 20:05:35;;;;;;;6.07;3.63;;;;;;;-145.68;48.83;73215.97;10563697;28;20185;-76
2023/07/05 20:10:37;;;;;;;5.00;3.42;;;;;;;-145.68;49.30;73243.97;10581417;28;20196;-76
2023/07/05 20:15:37;;;;;;;6.30;3.42;;;;;;;-145.68;50.79;73301.91;10581439;28;20214;-76
2023/07/05 20:20:38;;;;;;;5.60;3.20;;;;;;;-145.68;52.00;73395.84;10581714;28;20672;-76
2023/07/05 20:25:38;;;;;;;5.38;2.95;;;;;;;-145.68;53.64;73439.84;10580754;28;20713;-76
2023/07/05 20:30:39;;;;;;;4.93;3.13;;;;;;;-145.68;54.81;73475.81;10562828;28;20193;-75
2023/07/05 20:35:41;;;;;;;5.70;3.72;;;;;;;-145.68;55.51;73483.81;10580606;28;20236;-76
2023/07/05 20:40:44;;;;;;;4.30;3.28;;;;;;;-145.68;56.06;73513.78;10579847;28;20206;-75
2023/07/05 20:45:44;;;;;;;6.35;3.65;;;;;;;-145.68;56.28;73517.78;10580334;28;20190;-76
2023/07/05 20:50:44;;;;;;;5.30;3.65;;;;;;;-145.68;56.45;73515.78;10580044;28;20273;-76
2023/07/05 20:55:46;;;;;;;9.15;3.05;;;;;;;-145.68;56.41;73531.78;10579990;28;20263;-76
2023/07/05 21:00:46;;;;;;;7.50;3.47;;;;;;;-145.68;57.79;73545.78;10579317;28;20220;-75
2023/07/05 21:05:46;;;;;;;7.63;3.67;;;;;;;-145.68;57.78;73559.75;10561200;28;20851;-76
2023/07/05 21:10:50;;;;;;;4.15;3.28;;;;;;;-145.68;56.99;73551.75;10578896;28;20346;-76
2023/07/05 21:15:59;;;;;;;5.57;3.35;;;;;;;-145.68;56.89;73551.75;10579086;28;20218;-75
2023/07/05 21:21:00;;;;;;;3.78;2.67;;;;;;;-145.68;56.16;73543.78;10578631;28;20194;-75
2023/07/05 21:26:03;;;;;;;4.35;2.67;;;;;;;-145.68;56.22;73551.75;10579528;28;20186;-76
2023/07/05 21:31:07;;;;;;;5.10;3.17;;;;;;;-145.68;57.04;73563.75;10579015;28;20198;-76
2023/07/05 21:36:07;;;;;;;4.97;3.35;;;;;;;-145.68;58.25;73599.72;10579603;28;20209;-76
2023/07/05 21:41:08;;;;;;;5.32;3.30;;;;;;;-145.68;57.97;73589.75;10578982;28;20624;-76
2023/07/05 21:46:10;;;;;;;6.60;3.45;;;;;;;-145.68;58.59;73605.72;10578716;28;20185;-76
2023/07/05 21:51:12;;;;;;;6.15;3.70;;;;;;;-145.68;57.98;73605.72;10560614;28;20274;-76
2023/07/05 21:56:13;;;;;;;5.38;3.03;;;;;;;-145.68;56.75;73599.72;10578140;28;20210;-76
2023/07/05 22:01:19;;;;;;;6.72;3.15;;;;;;;-145.68;55.50;73587.75;10578397;28;20182;-76
2023/07/05 22:06:24;;;;;;;5.13;3.50;;;;;;;-145.68;55.70;73593.75;10578009;28;20559;-76
2023/07/05 22:11:24;;;;;;;6.10;2.90;;;;;;;-145.68;55.98;73615.72;10577762;28;20189;-76
2023/07/05 22:16:26;;;;;;;4.43;3.22;;;;;;;-145.68;56.26;73619.72;10577593;28;20214;-75
2023/07/05 22:21:26;;;;;;;5.85;2.90;;;;;;;-145.68;56.80;73641.72;10577108;28;20202;-75
2023/07/05 22:26:27;;;;;;;5.78;3.15;;;;;;;-145.68;57.10;73661.69;10577280;28;20186;-76
2023/07/05 22:31:27;;;;;;;4.05;2.80;;;;;;;-145.68;56.72;73651.72;10576275;28;20242;-75
2023/07/05 22:36:28;;;;;;;4.68;3.03;;;;;;;-145.68;56.53;73655.69;10576896;28;20225;-75
2023/07/05 22:41:29;;;;;;;6.95;2.83;;;;;;;-145.68;56.12;73655.69;10558660;28;20217;-76
2023/07/05 22:46:29;;;;;;;4.13;3.00;;;;;;;-145.68;56.61;73677.69;10576838;28;20544;-75